createdAt,value
2018-07-28T00:00:32.199Z,25.90
2018-07-28T00:03:00.923Z,25.90
2018-07-28T00:05:29.232Z,25.90
2018-07-28T00:07:57.591Z,25.80
2018-07-28T00:10:25.993Z,25.80
2018-07-28T00:12:54.328Z,25.70
2018-07-28T00:15:22.695Z,25.70
2018-07-28T00:17:51.651Z,25.70
2018-07-28T00:20:19.999Z,25.70
2018-07-28T00:22:48.306Z,25.70
2018-07-28T00:25:16.636Z,25.50
2018-07-28T00:27:44.927Z,25.50
2018-07-28T00:30:13.595Z,25.40
2018-07-28T00:32:41.980Z,25.40
2018-07-28T00:35:10.311Z,25.40
2018-07-28T00:37:38.706Z,25.40
2018-07-28T00:40:07.580Z,25.40
2018-07-28T00:42:36.144Z,25.40
2018-07-28T00:45:05.276Z,25.40
2018-07-28T00:47:33.624Z,25.30
2018-07-28T00:50:02.929Z,25.40
2018-07-28T00:52:31.239Z,25.30
2018-07-28T00:55:00.419Z,25.40
2018-07-28T00:57:28.732Z,24.80
2018-07-28T00:59:57.028Z,24.30
2018-07-28T01:02:25.400Z,24.20
2018-07-28T01:04:53.735Z,24.60
2018-07-28T01:07:22.088Z,24.70
2018-07-28T01:09:50.388Z,24.90
2018-07-28T01:12:18.701Z,24.80
2018-07-28T01:14:47.028Z,24.90
2018-07-28T01:17:15.335Z,25.10
2018-07-28T01:19:43.703Z,25.10
2018-07-28T01:22:12.044Z,24.90
2018-07-28T01:24:40.376Z,24.70
2018-07-28T01:27:08.707Z,24.70
2018-07-28T01:29:37.035Z,24.70
2018-07-28T01:32:06.264Z,24.80
2018-07-28T01:34:34.555Z,24.90
2018-07-28T01:37:02.876Z,24.90
2018-07-28T01:39:31.220Z,24.90
2018-07-28T01:42:00.312Z,24.90
2018-07-28T01:44:28.643Z,24.80
2018-07-28T01:46:56.948Z,24.70
2018-07-28T01:49:25.289Z,24.60
2018-07-28T01:51:53.573Z,24.50
2018-07-28T01:54:21.895Z,24.50
2018-07-28T01:56:50.224Z,23.90
2018-07-28T01:59:18.552Z,23.60
2018-07-28T02:01:46.860Z,23.40
2018-07-28T02:04:15.175Z,23.50
2018-07-28T02:06:43.528Z,23.60
2018-07-28T02:09:12.256Z,23.70
2018-07-28T02:11:40.852Z,23.70
2018-07-28T02:14:09.283Z,23.60
2018-07-28T02:16:37.591Z,23.60
2018-07-28T02:19:05.952Z,23.40
2018-07-28T02:21:34.364Z,23.40
2018-07-28T02:24:02.876Z,23.20
2018-07-28T02:26:31.172Z,23.30
2018-07-28T02:28:59.488Z,23.30
2018-07-28T02:31:27.906Z,23.10
2018-07-28T02:33:56.265Z,23.10
2018-07-28T02:36:24.605Z,23.10
2018-07-28T02:38:52.932Z,23.20
2018-07-28T02:41:21.927Z,23.20
2018-07-28T02:43:50.238Z,23.10
2018-07-28T02:46:18.549Z,22.60
2018-07-28T02:48:46.860Z,23.10
2018-07-28T02:51:15.212Z,23.60
2018-07-28T02:53:45.377Z,23.50
2018-07-28T02:56:14.757Z,23.60
2018-07-28T02:58:43.095Z,23.60
2018-07-28T03:01:11.939Z,23.70
2018-07-28T03:03:40.416Z,23.80
2018-07-28T03:06:08.820Z,23.80
2018-07-28T03:08:37.288Z,23.70
2018-07-28T03:11:05.651Z,23.80
2018-07-28T03:13:33.952Z,23.70
2018-07-28T03:16:02.296Z,23.80
2018-07-28T03:18:30.644Z,23.80
2018-07-28T03:20:58.936Z,23.70
2018-07-28T03:23:27.261Z,23.70
2018-07-28T03:25:55.579Z,23.60
2018-07-28T03:28:23.907Z,23.50
2018-07-28T03:30:52.217Z,23.50
2018-07-28T03:33:20.831Z,23.40
2018-07-28T03:35:49.147Z,23.40
2018-07-28T03:38:17.492Z,23.40
2018-07-28T03:40:45.807Z,23.30
2018-07-28T03:43:14.133Z,23.40
2018-07-28T03:45:42.468Z,23.40
2018-07-28T03:48:11.480Z,23.40
2018-07-28T03:50:39.779Z,23.40
2018-07-28T03:53:08.787Z,23.40
2018-07-28T03:55:37.123Z,23.30
2018-07-28T03:58:05.451Z,23.30
2018-07-28T04:00:33.795Z,23.30
2018-07-28T04:03:02.767Z,23.20
2018-07-28T04:05:31.069Z,23.10
2018-07-28T04:07:59.432Z,23.00
2018-07-28T04:10:27.733Z,23.10
2018-07-28T04:12:55.711Z,23.10
2018-07-28T04:15:24.556Z,23.10
2018-07-28T04:17:55.817Z,23.10
2018-07-28T04:20:25.599Z,23.20
2018-07-28T04:22:54.383Z,23.00
2018-07-28T04:25:22.880Z,22.80
2018-07-28T04:27:51.640Z,23.00
2018-07-28T04:30:20.099Z,23.10
2018-07-28T04:32:48.415Z,23.00
2018-07-28T04:35:16.727Z,23.10
2018-07-28T04:37:45.084Z,23.10
2018-07-28T04:40:13.419Z,23.20
2018-07-28T04:42:42.507Z,23.20
2018-07-28T04:45:10.817Z,23.20
2018-07-28T04:47:39.131Z,23.30
2018-07-28T04:50:07.511Z,23.50
2018-07-28T04:52:35.831Z,23.70
2018-07-28T04:55:05.054Z,23.80
2018-07-28T04:57:33.519Z,24.00
2018-07-28T05:00:02.013Z,24.00
2018-07-28T05:02:30.343Z,24.00
2018-07-28T05:07:30.490Z,24.40
2018-07-28T05:10:02.378Z,24.30
2018-07-28T05:12:34.268Z,24.10
2018-07-28T05:15:10.493Z,24.20
2018-07-28T05:17:39.550Z,24.20
2018-07-28T05:20:07.862Z,24.10
2018-07-28T05:22:36.930Z,24.00
2018-07-28T05:25:05.760Z,24.00
2018-07-28T05:27:35.150Z,24.00
2018-07-28T05:30:03.521Z,24.00
2018-07-28T05:32:31.927Z,24.10
2018-07-28T05:35:00.868Z,24.10
2018-07-28T05:37:29.181Z,23.80
2018-07-28T05:39:57.533Z,23.60
2018-07-28T05:42:25.995Z,23.60
2018-07-28T05:44:54.596Z,23.50
2018-07-28T05:47:22.920Z,23.40
2018-07-28T05:49:51.231Z,23.40
2018-07-28T05:52:19.552Z,23.50
2018-07-28T05:54:48.697Z,23.50
2018-07-28T05:57:17.038Z,23.40
2018-07-28T05:59:45.384Z,23.20
2018-07-28T06:02:13.918Z,22.80
2018-07-28T06:04:42.243Z,22.70
2018-07-28T06:07:10.639Z,22.70
2018-07-28T06:09:39.532Z,22.50
2018-07-28T06:12:08.005Z,22.50
2018-07-28T06:14:36.933Z,22.40
2018-07-28T06:17:05.437Z,22.40
2018-07-28T06:19:33.812Z,22.60
2018-07-28T06:22:02.160Z,22.60
2018-07-28T06:24:31.183Z,22.40
2018-07-28T06:26:59.552Z,22.40
2018-07-28T06:29:27.912Z,22.60
2018-07-28T06:31:56.353Z,22.70
2018-07-28T06:34:24.803Z,22.80
2018-07-28T06:36:53.249Z,23.00
2018-07-28T06:39:21.567Z,23.00
2018-07-28T06:41:50.463Z,23.00
2018-07-28T06:44:18.813Z,22.90
2018-07-28T06:46:47.147Z,23.00
2018-07-28T06:49:16.681Z,23.00
2018-07-28T06:51:45.048Z,23.00
2018-07-28T06:54:13.440Z,22.90
2018-07-28T06:56:41.910Z,23.00
2018-07-28T06:59:10.423Z,23.00
2018-07-28T07:04:29.279Z,23.10
2018-07-28T07:06:57.839Z,23.20
2018-07-28T07:09:26.337Z,23.10
2018-07-28T07:11:54.744Z,23.20
2018-07-28T07:14:23.068Z,23.40
2018-07-28T07:16:51.515Z,23.50
2018-07-28T07:19:20.672Z,23.70
2018-07-28T07:21:49.011Z,23.80
2018-07-28T07:24:17.324Z,23.80
2018-07-28T07:26:46.224Z,23.80
2018-07-28T07:29:14.832Z,23.90
2018-07-28T07:31:43.183Z,23.80
2018-07-28T07:34:11.511Z,24.00
2018-07-28T07:36:39.892Z,24.10
2018-07-28T07:39:08.748Z,24.10
2018-07-28T07:41:37.152Z,24.40
2018-07-28T07:44:05.612Z,24.40
2018-07-28T07:46:34.295Z,24.40
2018-07-28T07:49:02.699Z,24.50
2018-07-28T07:51:31.096Z,24.60
2018-07-28T07:53:59.436Z,24.90
2018-07-28T07:56:27.700Z,24.80
2018-07-28T07:58:56.151Z,24.70
2018-07-28T08:01:24.461Z,24.70
2018-07-28T08:03:52.897Z,24.80
2018-07-28T08:06:25.339Z,24.80
2018-07-28T08:09:00.754Z,24.70
2018-07-28T08:11:34.488Z,24.60
2018-07-28T08:14:04.875Z,24.50
2018-07-28T08:16:38.119Z,24.30
2018-07-28T08:19:10.717Z,24.50
2018-07-28T08:21:45.204Z,24.40
2018-07-28T08:24:15.774Z,24.60
2018-07-28T08:26:45.882Z,24.70
2018-07-28T08:29:14.408Z,24.70
2018-07-28T08:31:42.721Z,24.80
2018-07-28T08:34:11.064Z,24.90
2018-07-28T08:36:39.360Z,25.00
2018-07-28T08:39:11.775Z,24.90
2018-07-28T08:41:40.342Z,25.00
2018-07-28T08:44:08.673Z,25.00
2018-07-28T08:46:36.967Z,25.10
2018-07-28T08:49:05.512Z,25.20
2018-07-28T08:51:33.792Z,25.30
2018-07-28T08:54:02.109Z,25.50
2018-07-28T08:56:30.518Z,25.60
2018-07-28T08:58:58.816Z,25.60
2018-07-28T09:01:27.192Z,25.70
2018-07-28T09:03:55.595Z,25.70
2018-07-28T09:06:24.474Z,25.90
2018-07-28T09:08:52.808Z,26.10
2018-07-28T09:11:21.136Z,26.50
2018-07-28T09:13:49.444Z,26.80
2018-07-28T09:16:17.812Z,26.70
2018-07-28T09:18:46.108Z,26.60
2018-07-28T09:21:14.438Z,27.00
2018-07-28T09:23:42.756Z,27.20
2018-07-28T09:26:11.064Z,27.20
2018-07-28T09:28:39.396Z,27.10
2018-07-28T09:31:07.737Z,26.80
2018-07-28T09:33:36.263Z,26.60
2018-07-28T09:36:05.253Z,26.70
2018-07-28T09:38:33.719Z,27.00
2018-07-28T09:41:02.107Z,27.20
2018-07-28T09:43:30.412Z,27.10
2018-07-28T09:46:00.005Z,27.30
2018-07-28T09:48:28.672Z,27.30
2018-07-28T09:50:57.077Z,27.40
2018-07-28T09:53:25.408Z,27.50
2018-07-28T09:55:54.232Z,27.20
2018-07-28T09:58:22.617Z,27.30
2018-07-28T10:00:56.356Z,27.40
2018-07-28T10:03:25.012Z,27.30
2018-07-28T10:05:53.348Z,27.50
2018-07-28T10:08:21.907Z,27.40
2018-07-28T10:10:50.272Z,27.60
2018-07-28T10:13:18.611Z,28.00
2018-07-28T10:15:47.011Z,28.10
2018-07-28T10:18:15.312Z,27.70
2018-07-28T10:20:43.651Z,27.70
2018-07-28T10:23:11.981Z,27.70
2018-07-28T10:25:40.284Z,27.50
2018-07-28T10:28:08.612Z,27.70
2018-07-28T10:30:37.343Z,27.60
2018-07-28T10:33:05.697Z,27.80
2018-07-28T10:35:34.008Z,28.30
2018-07-28T10:38:02.320Z,28.70
2018-07-28T10:40:30.619Z,29.30
2018-07-28T10:42:58.936Z,29.40
2018-07-28T10:45:27.271Z,29.20
2018-07-28T10:47:55.574Z,28.80
2018-07-28T10:50:24.311Z,29.20
2018-07-28T10:52:52.633Z,30.00
2018-07-28T10:55:20.956Z,30.20
2018-07-28T10:57:49.280Z,30.10
2018-07-28T11:00:17.623Z,29.50
2018-07-28T11:02:45.936Z,29.60
2018-07-28T11:05:14.236Z,29.60
2018-07-28T11:07:42.576Z,29.30
2018-07-28T11:10:10.927Z,28.90
2018-07-28T11:12:39.235Z,29.70
2018-07-28T11:15:08.454Z,29.70
2018-07-28T11:17:36.756Z,29.50
2018-07-28T11:20:07.151Z,29.30
2018-07-28T11:22:35.530Z,29.20
2018-07-28T11:25:04.623Z,29.20
2018-07-28T11:27:32.925Z,28.90
2018-07-28T11:30:01.248Z,28.40
2018-07-28T11:32:41.977Z,28.40
2018-07-28T11:35:23.359Z,28.20
2018-07-28T11:38:36.537Z,27.80
2018-07-28T11:41:17.045Z,28.20
2018-07-28T11:43:59.823Z,28.70
2018-07-28T11:46:32.792Z,28.90
2018-07-28T11:49:05.272Z,29.30
2018-07-28T11:51:35.912Z,29.70
2018-07-28T11:54:10.734Z,30.30
2018-07-28T11:56:42.405Z,30.70
2018-07-28T11:59:17.085Z,30.60
2018-07-28T12:01:48.554Z,30.40
2018-07-28T12:04:18.757Z,30.40
2018-07-28T12:06:58.369Z,30.70
2018-07-28T12:09:26.816Z,31.10
2018-07-28T12:11:55.129Z,31.00
2018-07-28T12:14:23.460Z,31.30
2018-07-28T12:16:52.008Z,31.40
2018-07-28T12:19:21.700Z,31.90
2018-07-28T12:21:50.039Z,31.50
2018-07-28T12:24:18.376Z,31.70
2018-07-28T12:26:46.688Z,32.00
2018-07-28T12:29:15.100Z,32.40
2018-07-28T12:31:43.407Z,32.50
2018-07-28T12:34:11.724Z,32.50
2018-07-28T12:36:40.081Z,32.30
2018-07-28T12:39:09.570Z,32.00
2018-07-28T12:41:37.932Z,32.00
2018-07-28T12:44:06.811Z,31.70
2018-07-28T12:46:35.654Z,31.80
2018-07-28T12:49:04.059Z,32.30
2018-07-28T12:51:32.377Z,32.90
2018-07-28T12:54:00.711Z,33.10
2018-07-28T12:56:29.036Z,31.80
2018-07-28T12:58:57.352Z,30.70
2018-07-28T13:01:25.720Z,30.30
2018-07-28T13:03:54.141Z,29.90
2018-07-28T13:06:23.095Z,29.50
2018-07-28T13:08:52.464Z,30.20
2018-07-28T13:11:20.776Z,30.30
2018-07-28T13:13:49.143Z,29.90
2018-07-28T13:16:17.463Z,29.50
2018-07-28T13:18:45.761Z,29.40
2018-07-28T13:21:14.160Z,29.70
2018-07-28T13:23:42.529Z,30.00
2018-07-28T13:26:10.840Z,30.00
2018-07-28T13:28:39.152Z,30.30
2018-07-28T13:31:07.472Z,30.40
2018-07-28T13:33:35.864Z,30.60
2018-07-28T13:36:04.212Z,30.60
2018-07-28T13:38:32.520Z,30.80
2018-07-28T13:41:00.837Z,30.60
2018-07-28T13:43:29.164Z,30.60
2018-07-28T13:45:57.485Z,30.70
2018-07-28T13:48:26.204Z,30.50
2018-07-28T13:50:54.524Z,31.10
2018-07-28T13:53:22.864Z,31.60
2018-07-28T13:55:51.169Z,31.00
2018-07-28T13:58:19.476Z,30.50
2018-07-28T14:00:47.768Z,30.10
2018-07-28T14:03:16.142Z,29.80
2018-07-28T14:05:44.479Z,29.60
2018-07-28T14:08:12.784Z,29.50
2018-07-28T14:10:41.091Z,29.50
2018-07-28T14:13:09.416Z,29.90
2018-07-28T14:15:37.712Z,29.70
2018-07-28T14:18:06.243Z,29.60
2018-07-28T14:20:34.540Z,29.90
2018-07-28T14:23:02.864Z,30.40
2018-07-28T14:25:31.235Z,30.70
2018-07-28T14:27:59.552Z,30.70
2018-07-28T14:30:27.868Z,30.30
2018-07-28T14:32:56.196Z,30.10
2018-07-28T14:35:24.516Z,30.00
2018-07-28T14:37:52.961Z,29.80
2018-07-28T14:40:21.295Z,29.90
2018-07-28T14:42:49.623Z,29.80
2018-07-28T14:45:17.952Z,29.90
2018-07-28T14:47:46.248Z,30.50
2018-07-28T14:50:14.581Z,30.90
2018-07-28T14:52:42.917Z,31.20
2018-07-28T14:55:11.377Z,30.90
2018-07-28T14:57:39.671Z,30.10
2018-07-28T15:00:08.250Z,30.30
2018-07-28T15:02:36.541Z,30.40
2018-07-28T15:05:05.425Z,29.80
2018-07-28T15:07:33.776Z,29.80
2018-07-28T15:10:02.135Z,29.80
2018-07-28T15:12:30.487Z,29.70
2018-07-28T15:14:58.822Z,30.00
2018-07-28T15:17:27.148Z,30.20
2018-07-28T15:19:55.489Z,29.90
2018-07-28T15:22:23.836Z,29.60
2018-07-28T15:24:53.204Z,29.90
2018-07-28T15:27:21.730Z,29.90
2018-07-28T15:29:50.028Z,30.10
2018-07-28T15:32:18.342Z,30.10
2018-07-28T15:34:46.644Z,29.20
2018-07-28T15:37:15.064Z,29.10
2018-07-28T15:39:43.623Z,29.80
2018-07-28T15:42:12.041Z,30.70
2018-07-28T15:44:40.369Z,31.00
2018-07-28T15:47:08.676Z,31.20
2018-07-28T15:49:37.022Z,30.60
2018-07-28T15:52:05.551Z,30.60
2018-07-28T15:54:33.868Z,31.10
2018-07-28T15:57:02.267Z,30.80
2018-07-28T15:59:30.725Z,31.20
2018-07-28T16:01:59.056Z,31.50
2018-07-28T16:04:27.366Z,31.20
2018-07-28T16:06:55.673Z,30.60
2018-07-28T16:09:23.983Z,29.80
2018-07-28T16:11:52.288Z,29.70
2018-07-28T16:14:20.603Z,29.50
2018-07-28T16:16:49.015Z,29.30
2018-07-28T16:19:17.307Z,29.10
2018-07-28T16:21:45.663Z,29.40
2018-07-28T16:24:13.971Z,29.30
2018-07-28T16:26:42.295Z,29.10
2018-07-28T16:29:10.604Z,28.70
2018-07-28T16:31:38.935Z,28.70
2018-07-28T16:34:08.338Z,28.70
2018-07-28T16:36:36.736Z,28.40
2018-07-28T16:39:07.637Z,28.40
2018-07-28T16:41:37.116Z,29.00
2018-07-28T16:44:05.479Z,30.00
2018-07-28T16:46:33.853Z,30.50
2018-07-28T16:49:02.119Z,29.80
2018-07-28T16:51:30.442Z,28.90
2018-07-28T16:53:58.763Z,28.60
2018-07-28T16:56:27.083Z,29.10
2018-07-28T16:58:55.460Z,28.70
2018-07-28T17:01:23.784Z,28.80
2018-07-28T17:03:52.233Z,29.10
2018-07-28T17:06:20.563Z,29.60
2018-07-28T17:08:48.899Z,29.70
2018-07-28T17:11:17.219Z,30.00
2018-07-28T17:13:45.557Z,29.60
2018-07-28T17:16:13.919Z,29.30
2018-07-28T17:18:42.227Z,29.30
2018-07-28T17:21:10.531Z,28.90
2018-07-28T17:23:39.805Z,28.80
2018-07-28T17:26:08.188Z,29.00
2018-07-28T17:28:36.492Z,28.70
2018-07-28T17:31:04.810Z,28.80
2018-07-28T17:33:33.119Z,28.60
2018-07-28T17:36:01.560Z,28.50
2018-07-28T17:38:29.896Z,28.10
2018-07-28T17:40:58.346Z,28.00
2018-07-28T17:43:26.593Z,28.00
2018-07-28T17:45:54.932Z,27.60
2018-07-28T17:48:23.252Z,27.40
2018-07-28T17:50:51.789Z,27.50
2018-07-28T17:53:20.936Z,27.40
2018-07-28T17:55:49.317Z,27.50
2018-07-28T17:58:17.677Z,27.60
2018-07-28T18:00:45.929Z,27.50
2018-07-28T18:03:14.239Z,27.50
2018-07-28T18:05:44.618Z,27.60
2018-07-28T18:08:12.927Z,27.50
2018-07-28T18:10:41.239Z,27.60
2018-07-28T18:13:09.628Z,27.60
2018-07-28T18:15:37.927Z,27.40
2018-07-28T18:18:06.333Z,27.50
2018-07-28T18:20:34.628Z,27.50
2018-07-28T18:23:02.955Z,27.40
2018-07-28T18:25:31.256Z,27.20
2018-07-28T18:27:59.583Z,27.00
2018-07-28T18:30:28.523Z,26.70
2018-07-28T18:32:56.823Z,26.70
2018-07-28T18:35:25.307Z,26.80
2018-07-28T18:37:53.600Z,26.80
2018-07-28T18:40:21.926Z,26.80
2018-07-28T18:42:50.238Z,26.80
2018-07-28T18:45:18.560Z,26.70
2018-07-28T18:47:46.868Z,26.70
2018-07-28T18:50:15.203Z,26.70
2018-07-28T18:52:43.541Z,26.50
2018-07-28T18:55:11.944Z,26.30
2018-07-28T18:57:40.724Z,26.20
2018-07-28T19:00:09.560Z,26.10
2018-07-28T19:02:38.068Z,26.00
2018-07-28T19:05:07.005Z,25.80
2018-07-28T19:07:35.346Z,25.70
2018-07-28T19:10:03.767Z,25.50
2018-07-28T19:12:37.308Z,25.30
2018-07-28T19:15:05.932Z,25.20
2018-07-28T19:17:39.570Z,25.10
2018-07-28T19:20:08.088Z,24.90
2018-07-28T19:22:41.610Z,24.80
2018-07-28T19:25:09.865Z,24.70
2018-07-28T19:27:38.200Z,24.60
2018-07-28T19:30:11.843Z,24.50
2018-07-28T19:32:45.992Z,24.50
2018-07-28T19:35:18.226Z,24.40
2018-07-28T19:37:50.670Z,24.40
2018-07-28T19:40:24.457Z,24.40
2018-07-28T19:43:01.038Z,24.40
2018-07-28T19:45:32.249Z,24.40
2018-07-28T19:48:07.873Z,24.00
2018-07-28T19:50:42.018Z,23.80
2018-07-28T19:53:15.812Z,23.80
2018-07-28T19:55:46.411Z,23.90
2018-07-28T19:58:18.909Z,23.90
2018-07-28T20:00:52.409Z,23.90
2018-07-28T20:03:25.505Z,23.90
2018-07-28T20:05:59.982Z,23.80
2018-07-28T20:08:33.555Z,23.50
2018-07-28T20:11:07.875Z,23.10
2018-07-28T20:13:45.694Z,22.90
2018-07-28T20:16:25.629Z,23.00
2018-07-28T20:18:58.073Z,22.90
2018-07-28T20:21:32.901Z,22.60
2018-07-28T20:24:08.737Z,22.50
2018-07-28T20:26:40.145Z,22.30
2018-07-28T20:29:11.633Z,22.20
2018-07-28T20:31:42.799Z,22.00
2018-07-28T20:34:23.145Z,21.90
2018-07-28T20:37:02.325Z,21.60
2018-07-28T20:39:34.699Z,21.50
2018-07-28T20:42:06.906Z,21.40
2018-07-28T20:44:38.605Z,21.30
2018-07-28T20:47:11.666Z,21.40
2018-07-28T20:49:44.963Z,21.40
2018-07-28T20:52:20.786Z,21.30
2018-07-28T20:54:52.163Z,21.10
2018-07-28T20:57:20.687Z,21.10
2018-07-28T20:59:49.172Z,21.10
2018-07-28T21:02:17.613Z,21.10
2018-07-28T21:04:45.924Z,21.10
2018-07-28T21:07:14.279Z,21.00
2018-07-28T21:09:42.991Z,20.80
2018-07-28T21:12:11.347Z,20.70
2018-07-28T21:14:39.647Z,20.70
2018-07-28T21:17:07.964Z,20.60
2018-07-28T21:19:36.373Z,20.60
2018-07-28T21:22:04.723Z,20.40
2018-07-28T21:24:33.026Z,20.20
2018-07-28T21:27:01.539Z,20.00
2018-07-28T21:29:29.869Z,20.00
2018-07-28T21:31:58.176Z,19.90
2018-07-28T21:34:26.679Z,20.00
2018-07-28T21:36:55.051Z,20.10
2018-07-28T21:39:23.399Z,20.00
2018-07-28T21:41:51.720Z,19.80
2018-07-28T21:44:20.025Z,19.80
2018-07-28T21:46:48.345Z,19.80
2018-07-28T21:49:16.665Z,19.70
2018-07-28T21:51:45.008Z,19.50
2018-07-28T21:54:14.033Z,19.60
2018-07-28T21:56:42.355Z,19.70
2018-07-28T21:59:10.675Z,19.80
2018-07-28T22:01:42.900Z,19.80
2018-07-28T22:04:16.606Z,19.80
2018-07-28T22:06:45.885Z,19.90
2018-07-28T22:09:14.237Z,20.00
2018-07-28T22:14:19.730Z,20.20
2018-07-28T22:16:48.145Z,20.40
2018-07-28T22:19:16.508Z,20.40
2018-07-28T22:21:45.265Z,20.40
2018-07-28T22:24:13.632Z,20.50
2018-07-28T22:26:42.006Z,20.60
2018-07-28T22:29:10.324Z,20.70
2018-07-28T22:31:38.716Z,20.70
2018-07-28T22:34:07.219Z,20.60
2018-07-28T22:36:35.600Z,20.40
2018-07-28T22:39:05.414Z,20.20
2018-07-28T22:41:33.717Z,20.00
2018-07-28T22:44:02.033Z,19.60
2018-07-28T22:46:30.340Z,19.40
2018-07-28T22:48:58.787Z,19.30
2018-07-28T22:51:27.176Z,19.20
2018-07-28T22:53:55.724Z,19.30
2018-07-28T22:56:24.051Z,19.40
2018-07-28T22:58:52.388Z,19.70
2018-07-28T23:01:20.728Z,19.80
2018-07-28T23:03:49.004Z,19.90
2018-07-28T23:06:17.346Z,20.00
2018-07-28T23:08:45.657Z,19.80
2018-07-28T23:11:13.970Z,19.60
2018-07-28T23:13:42.315Z,19.50
2018-07-28T23:16:10.668Z,19.50
2018-07-28T23:18:38.963Z,19.50
2018-07-28T23:21:07.557Z,19.40
2018-07-28T23:23:36.459Z,19.30
2018-07-28T23:26:04.811Z,19.20
2018-07-28T23:28:33.133Z,18.90
2018-07-28T23:31:01.459Z,18.90
2018-07-28T23:33:29.768Z,18.80
2018-07-28T23:35:58.075Z,18.70
2018-07-28T23:38:26.377Z,18.60
2018-07-28T23:40:54.712Z,18.50
2018-07-28T23:43:23.124Z,18.50
2018-07-28T23:45:51.420Z,18.50
2018-07-28T23:48:19.736Z,18.50
2018-07-28T23:50:48.077Z,18.60
2018-07-28T23:53:16.412Z,18.60
2018-07-28T23:55:44.712Z,18.60
2018-07-28T23:58:13.012Z,18.50
